Tropical Cyclones
[Index]
Main Index Home Page Stock Weather Photos Extreme Storms Discussion Storm News and Storm Chasing Reports Tropical Cyclones / Hurricanes / Typhoons Weather Data and Links Wild Fires / Bushfires Weather Observation Techniques Weather Picture Catalogue Tornado Pictures and Reports Stock Video Footage and DVDs for sale
Season 1975-1976 Tropical Cyclone DAVID Track Map
Season 1975-1976 Summaries: [BoM-AU] [JTWC-AU] [JTWC-SIO] [JTWC-SPAC] [JTWC-SH]
<<- Previous TC | JTWC 1975-1976 Season | Next TC ->>

click for intensity scale information  Lat/long Grid: Show Hide

 Date Labels: Show Hide

Joint Typhoon Warning Centre Cyclone Data

Name: DAVID
Number: 914 / 7610

12 Jan 1976 00:00 UTC to 22 Jan 1976 12:00 UTC

    date/time    lat    long     hPa   cat  kts
1976-01-12 00   14.4   172.2                              
1976-01-12 06   14.7   171.5                              
1976-01-12 12   15.0   170.8                              
1976-01-12 18   15.2   170.1                              
1976-01-13 00   15.4   169.3                              
1976-01-13 06   15.7   168.1                              
1976-01-13 12   16.0   167.0                              
1976-01-13 18   16.1   166.7                              
1976-01-14 00   16.3   166.5                              
1976-01-14 06   16.5   166.0                              
1976-01-14 12   16.7   165.6                              
1976-01-14 18   16.9   165.3                              
1976-01-15 00   17.1   164.9                              
1976-01-15 06   17.2   164.4                              
1976-01-15 12   17.4   163.9                              
1976-01-15 18   17.7   163.5                              
1976-01-16 00   18.0   163.0                              
1976-01-16 06   18.2   162.5                              
1976-01-16 12   18.4   162.0                              
1976-01-16 18   18.7   161.5                              
1976-01-17 00   19.0   160.9                              
1976-01-17 06   19.4   160.1                              
1976-01-17 12   19.8   159.2                              
1976-01-17 18   20.1   158.4                              
1976-01-18 00   20.5   157.5                              
1976-01-18 06   20.8   156.5                              
1976-01-18 12   21.2   155.4                              
1976-01-18 18   21.4   154.4                              
1976-01-19 00   21.4   153.4                              
1976-01-19 06   21.6   151.7                              
1976-01-19 12   21.8   149.7                              
1976-01-19 18   22.2   148.1                              
1976-01-20 00   22.7   146.7                              
1976-01-20 06   23.4   145.5                              
1976-01-20 12   24.2   144.4                              
1976-01-20 18   25.3   143.4                              
1976-01-21 00   26.2   142.6                              
1976-01-21 06   26.6   142.2                              
1976-01-21 12   27.1   142.0                              
1976-01-21 18   27.5   142.1                              
1976-01-22 00   28.0   142.7                              
1976-01-22 06   28.3   144.3                              
1976-01-22 12   28.4   147.0                              
Winds are 1-min average.

Tropical cyclone tracks developed by Michael Bath using data from the Joint Typhoon Warning Centre Best Tracks and Google Maps.


[Australian Severe Weather index] [Copyright Notice] [Email Contacts] [Search This Site] [Privacy Policy]
Document: tropical_cyclone_david.htm Updated: 18 September 2016